Darstellungsparameter: Aktuell verwendete Einstellungen:
Skalierung der Graphiken ... ?
xyx+y,   Skalierungsfaktor:      Skalierung: Modus: x, Faktor: 1
Darstellungszeitraum ... ?
Vom - - bis: - -   Zeitraum: 09.08.2016 - 09.08.2016
Min/Max/Avg-Anzeige ... ?
Zeige MMA aktuell
Zeige MMA Monat
Zeige MMA alles
Zeige --A aktuell
Zeige --A Monat
Zeige --A alles
Keine MMA-Anzeige
MMA:
Keine MMA-Graphiken
MMA-Basis: 09.08.2016 - 09.08.2016
Quicknavigation für Darstellung... ?
Tage:      1T, 2T, 3T, 5T -1T -2T -3T -5T +1T +2T +3T +5T
Wochen: 1W, 2W, 3W -1W -2W -3W +1W +2W +3W
Monate: 1M, 3M, 6M -1M -3M -6M +1M +3M +6M
Jahre:    1J, 3J, 5J, 10J -1J -3J -5J -10J +1J +3J +5J +10J
Nutze für die Darstellung ... ?
Originaldaten oder Mittelwerte auf ...
Stundenbasis Tagesbasis Wochenbasis
Monatsbasis Jahresbasis      Datenbasis: Original-Daten
Darstellen als:
Statistik (Auto) Statistik J:M      Darstellung:
Zur Graphik,    zurück zur Übersicht aller Sensoren.
 
Tabellarische Datenbersicht: ?
 
Sensor: Nr:Datum:Temp:Feuchte:Taupunkt:
Aussen-T/F 1 09-08-2016 00:00:00 16.8 C 80 % 13.33 C
2 09-08-2016 00:05:00 16.8 C 78 % 12.94 C
3 09-08-2016 00:10:00 16.8 C 78 % 12.94 C
4 09-08-2016 00:15:00 16.9 C 79 % 13.24 C
5 09-08-2016 00:20:00 16.9 C 79 % 13.24 C
6 09-08-2016 00:25:00 16.8 C 79 % 13.14 C
7 09-08-2016 00:30:00 16.8 C 80 % 13.33 C
8 09-08-2016 00:35:00 16.7 C 76 % 12.45 C
9 09-08-2016 00:40:00 16.7 C 77 % 12.65 C
10 09-08-2016 00:45:00 16.6 C 80 % 13.14 C
11 09-08-2016 00:50:00 16.5 C 78 % 12.65 C
12 09-08-2016 00:55:00 16.4 C 79 % 12.75 C
13 09-08-2016 01:00:00 16.4 C 78 % 12.56 C
14 09-08-2016 01:05:00 16.3 C 79 % 12.65 C
15 09-08-2016 01:10:00 16.2 C 79 % 12.56 C
16 09-08-2016 01:15:00 16.2 C 80 % 12.75 C
17 09-08-2016 01:20:00 16.1 C 80 % 12.65 C
18 09-08-2016 01:25:00 16.1 C 80 % 12.65 C
19 09-08-2016 01:30:00 16 C 81 % 12.74 C
20 09-08-2016 01:35:00 15.9 C 81 % 12.65 C
21 09-08-2016 01:40:00 15.8 C 81 % 12.55 C
22 09-08-2016 01:45:00 15.8 C 81 % 12.55 C
23 09-08-2016 01:50:00 15.7 C 82 % 12.64 C
24 09-08-2016 01:55:00 15.6 C 82 % 12.54 C
25 09-08-2016 02:00:00 15.4 C 82 % 12.35 C
Sensor: Nr:Datum:Temp:Feuchte:Taupunkt:
Aussen-T/F 26 09-08-2016 02:05:00 15.3 C 83 % 12.43 C
27 09-08-2016 02:10:00 15.2 C 82 % 12.15 C
28 09-08-2016 02:15:00 15.1 C 82 % 12.05 C
29 09-08-2016 02:20:00 15 C 83 % 12.14 C
30 09-08-2016 02:25:00 14.9 C 83 % 12.04 C
31 09-08-2016 02:30:00 14.9 C 83 % 12.04 C
32 09-08-2016 02:35:00 14.8 C 83 % 11.94 C
33 09-08-2016 02:40:00 14.8 C 82 % 11.76 C
34 09-08-2016 02:45:00 14.7 C 82 % 11.66 C
35 09-08-2016 02:50:00 14.7 C 84 % 12.03 C
36 09-08-2016 02:55:00 14.6 C 83 % 11.75 C
37 09-08-2016 03:00:00 14.6 C 83 % 11.75 C
38 09-08-2016 03:05:00 14.6 C 83 % 11.75 C
39 09-08-2016 03:10:00 14.5 C 84 % 11.83 C
40 09-08-2016 03:15:00 14.5 C 84 % 11.83 C
41 09-08-2016 03:20:00 14.5 C 84 % 11.83 C
42 09-08-2016 03:25:00 14.5 C 85 % 12.01 C
43 09-08-2016 03:30:00 14.6 C 86 % 12.29 C
44 09-08-2016 03:35:00 14.6 C 86 % 12.29 C
45 09-08-2016 03:40:00 14.6 C 86 % 12.29 C
46 09-08-2016 03:45:00 14.6 C 86 % 12.29 C
47 09-08-2016 03:50:00 14.5 C 85 % 12.01 C
48 09-08-2016 03:55:00 14.5 C 85 % 12.01 C
49 09-08-2016 04:00:00 14.5 C 86 % 12.19 C
50 09-08-2016 04:05:00 14.4 C 85 % 11.91 C
Sensor: Nr:Datum:Temp:Feuchte:Taupunkt:
Aussen-T/F 51 09-08-2016 04:10:00 14.4 C 85 % 11.91 C
52 09-08-2016 04:15:00 14.4 C 85 % 11.91 C
53 09-08-2016 04:20:00 14.4 C 86 % 12.09 C
54 09-08-2016 04:25:00 14.4 C 86 % 12.09 C
55 09-08-2016 04:30:00 14.4 C 85 % 11.91 C
56 09-08-2016 04:35:00 14.4 C 85 % 11.91 C
57 09-08-2016 04:40:00 14.4 C 85 % 11.91 C
58 09-08-2016 04:45:00 14.3 C 85 % 11.81 C
59 09-08-2016 04:50:00 14.4 C 85 % 11.91 C
60 09-08-2016 04:55:00 14.4 C 85 % 11.91 C
61 09-08-2016 05:00:00 14.3 C 85 % 11.81 C
62 09-08-2016 05:05:00 14.3 C 85 % 11.81 C
63 09-08-2016 05:10:00 14.3 C 85 % 11.81 C
64 09-08-2016 05:15:00 14.4 C 85 % 11.91 C
65 09-08-2016 05:20:00 14.3 C 85 % 11.81 C
66 09-08-2016 05:25:00 14.3 C 85 % 11.81 C
67 09-08-2016 05:30:00 14.3 C 85 % 11.81 C
68 09-08-2016 05:35:00 14.3 C 85 % 11.81 C
69 09-08-2016 05:40:00 14.2 C 85 % 11.72 C
70 09-08-2016 05:45:00 14.2 C 86 % 11.89 C
71 09-08-2016 05:50:00 14.1 C 86 % 11.8 C
72 09-08-2016 05:55:00 14.1 C 86 % 11.8 C
73 09-08-2016 06:00:00 14 C 86 % 11.7 C
74 09-08-2016 06:05:00 13.9 C 86 % 11.6 C
75 09-08-2016 06:10:00 13.9 C 86 % 11.6 C
Sensor: Nr:Datum:Temp:Feuchte:Taupunkt:
Aussen-T/F 76 09-08-2016 06:15:00 13.9 C 86 % 11.6 C
77 09-08-2016 06:20:00 13.8 C 87 % 11.68 C
78 09-08-2016 06:25:00 13.8 C 87 % 11.68 C
79 09-08-2016 06:30:00 13.8 C 87 % 11.68 C
80 09-08-2016 06:35:00 13.8 C 87 % 11.68 C
81 09-08-2016 06:40:00 13.7 C 87 % 11.58 C
82 09-08-2016 06:45:00 13.7 C 87 % 11.58 C
83 09-08-2016 06:50:00 13.7 C 87 % 11.58 C
84 09-08-2016 06:55:00 13.6 C 87 % 11.48 C
85 09-08-2016 07:00:00 13.6 C 87 % 11.48 C
86 09-08-2016 07:05:00 13.5 C 87 % 11.38 C
87 09-08-2016 07:10:00 13.4 C 87 % 11.28 C
88 09-08-2016 07:15:00 13.4 C 87 % 11.28 C
89 09-08-2016 07:20:00 13.3 C 87 % 11.18 C
90 09-08-2016 07:25:00 13.3 C 88 % 11.36 C
91 09-08-2016 07:30:00 13.3 C 88 % 11.36 C
92 09-08-2016 07:35:00 13.3 C 89 % 11.53 C
93 09-08-2016 07:40:00 13.3 C 89 % 11.53 C
94 09-08-2016 07:45:00 13.3 C 89 % 11.53 C
95 09-08-2016 07:50:00 13.4 C 90 % 11.79 C
96 09-08-2016 07:55:00 13.6 C 91 % 12.16 C
97 09-08-2016 08:00:00 13.8 C 91 % 12.36 C
98 09-08-2016 08:05:00 13.9 C 90 % 12.29 C
99 09-08-2016 08:10:00 14 C 89 % 12.22 C
100 09-08-2016 08:15:00 14.1 C 89 % 12.32 C
Sensor: Nr:Datum:Temp:Feuchte:Taupunkt:
Aussen-T/F 101 09-08-2016 08:20:00 14.2 C 89 % 12.41 C
102 09-08-2016 08:25:00 14.2 C 89 % 12.41 C
103 09-08-2016 08:30:00 14.2 C 89 % 12.41 C
104 09-08-2016 08:35:00 14.2 C 89 % 12.41 C
105 09-08-2016 08:40:00 14.2 C 89 % 12.41 C
106 09-08-2016 08:45:00 14.2 C 89 % 12.41 C
107 09-08-2016 08:50:00 14.3 C 89 % 12.51 C
108 09-08-2016 08:55:00 14.3 C 89 % 12.51 C
109 09-08-2016 09:00:00 14.4 C 89 % 12.61 C
110 09-08-2016 09:05:00 14.4 C 89 % 12.61 C
111 09-08-2016 09:10:00 14.5 C 90 % 12.88 C
112 09-08-2016 09:15:00 14.6 C 90 % 12.98 C
113 09-08-2016 09:20:00 14.7 C 87 % 12.56 C
114 09-08-2016 09:25:00 15.1 C 84 % 12.42 C
115 09-08-2016 09:30:00 15.6 C 82 % 12.54 C
116 09-08-2016 09:35:00 15.8 C 80 % 12.36 C
117 09-08-2016 09:40:00 16 C 78 % 12.17 C
118 09-08-2016 09:45:00 16.2 C 77 % 12.17 C
119 09-08-2016 09:50:00 16.3 C 76 % 12.07 C
120 09-08-2016 09:55:00 16.3 C 77 % 12.26 C
121 09-08-2016 10:00:00 16.3 C 76 % 12.07 C
122 09-08-2016 10:05:00 16.3 C 81 % 13.04 C
123 09-08-2016 10:10:00 16.2 C 82 % 13.13 C
124 09-08-2016 10:15:00 16.1 C 82 % 13.03 C
125 09-08-2016 10:20:00 16.1 C 80 % 12.65 C
Sensor: Nr:Datum:Temp:Feuchte:Taupunkt:
Aussen-T/F 126 09-08-2016 10:25:00 16.1 C 79 % 12.46 C
127 09-08-2016 10:30:00 16.2 C 77 % 12.17 C
128 09-08-2016 10:35:00 16.5 C 75 % 12.06 C
129 09-08-2016 10:40:00 16.7 C 73 % 11.84 C
130 09-08-2016 10:45:00 16.9 C 69 % 11.18 C
131 09-08-2016 10:50:00 17.1 C 69 % 11.37 C
132 09-08-2016 10:55:00 17.2 C 66 % 10.8 C
133 09-08-2016 11:00:00 17.4 C 69 % 11.66 C
134 09-08-2016 11:05:00 17.7 C 66 % 11.27 C
135 09-08-2016 11:10:00 17.9 C 66 % 11.46 C
136 09-08-2016 11:15:00 17.9 C 67 % 11.69 C
137 09-08-2016 11:20:00 17.8 C 68 % 11.82 C
138 09-08-2016 11:25:00 17.7 C 69 % 11.95 C
139 09-08-2016 11:30:00 17.8 C 68 % 11.82 C
140 09-08-2016 11:35:00 17.8 C 70 % 12.26 C
141 09-08-2016 11:40:00 17.9 C 67 % 11.69 C
142 09-08-2016 11:45:00 17.9 C 61 % 10.28 C
143 09-08-2016 11:50:00 18 C 62 % 10.62 C
144 09-08-2016 11:55:00 18.2 C 63 % 11.05 C
145 09-08-2016 12:00:00 18.3 C 63 % 11.14 C
146 09-08-2016 12:05:00 18.4 C 64 % 11.47 C
147 09-08-2016 12:10:00 18.5 C 64 % 11.57 C
148 09-08-2016 12:15:00 18.6 C 64 % 11.66 C
149 09-08-2016 12:20:00 18.6 C 62 % 11.18 C
150 09-08-2016 12:25:00 18.6 C 62 % 11.18 C
Sensor: Nr:Datum:Temp:Feuchte:Taupunkt:
Aussen-T/F 151 09-08-2016 12:30:00 18.6 C 59 % 10.44 C
152 09-08-2016 12:35:00 18.6 C 58 % 10.18 C
153 09-08-2016 12:40:00 18.5 C 58 % 10.09 C
154 09-08-2016 12:45:00 18.6 C 60 % 10.69 C
155 09-08-2016 12:50:00 18.8 C 59 % 10.63 C
156 09-08-2016 12:55:00 18.8 C 58 % 10.37 C
157 09-08-2016 13:00:00 18.9 C 58 % 10.46 C
158 09-08-2016 13:05:00 19 C 55 % 9.76 C
159 09-08-2016 13:10:00 19 C 56 % 10.03 C
160 09-08-2016 13:15:00 19.1 C 55 % 9.86 C
161 09-08-2016 13:20:00 19.3 C 54 % 9.77 C
162 09-08-2016 13:25:00 19.3 C 54 % 9.77 C
163 09-08-2016 13:30:00 19.4 C 53 % 9.58 C
164 09-08-2016 13:35:00 19.5 C 53 % 9.67 C
165 09-08-2016 13:40:00 19.6 C 52 % 9.48 C
166 09-08-2016 13:45:00 19.4 C 53 % 9.58 C
167 09-08-2016 13:50:00 19.3 C 51 % 8.92 C
168 09-08-2016 13:55:00 19.3 C 52 % 9.21 C
169 09-08-2016 14:00:00 19.3 C 53 % 9.49 C
170 09-08-2016 14:05:00 19.3 C 53 % 9.49 C
171 09-08-2016 14:10:00 19.1 C 54 % 9.58 C
172 09-08-2016 14:15:00 18.9 C 55 % 9.67 C
173 09-08-2016 14:20:00 18.8 C 55 % 9.58 C
174 09-08-2016 14:25:00 18.8 C 57 % 10.11 C
175 09-08-2016 14:30:00 18.8 C 56 % 9.84 C
Sensor: Nr:Datum:Temp:Feuchte:Taupunkt:
Aussen-T/F 176 09-08-2016 14:35:00 18.9 C 56 % 9.94 C
177 09-08-2016 14:40:00 19.2 C 55 % 9.95 C
178 09-08-2016 14:45:00 19.4 C 54 % 9.86 C
179 09-08-2016 14:50:00 19.4 C 54 % 9.86 C
180 09-08-2016 14:55:00 19.3 C 55 % 10.04 C
181 09-08-2016 15:00:00 19.2 C 55 % 9.95 C
182 09-08-2016 15:05:00 19.2 C 54 % 9.67 C
183 09-08-2016 15:10:00 19.2 C 57 % 10.48 C
184 09-08-2016 15:15:00 19.4 C 54 % 9.86 C
185 09-08-2016 15:20:00 19.5 C 57 % 10.76 C
186 09-08-2016 15:25:00 19.7 C 54 % 10.14 C
187 09-08-2016 15:30:00 19.8 C 54 % 10.23 C
188 09-08-2016 15:35:00 20.2 C 52 % 10.04 C
189 09-08-2016 15:40:00 20.6 C 51 % 10.12 C
190 09-08-2016 15:45:00 20.8 C 50 % 10 C
191 09-08-2016 15:50:00 21.1 C 49 % 9.98 C
192 09-08-2016 15:55:00 21.2 C 49 % 10.07 C
193 09-08-2016 16:00:00 21.3 C 48 % 9.85 C
194 09-08-2016 16:05:00 21.1 C 47 % 9.36 C
195 09-08-2016 16:10:00 21.1 C 45 % 8.71 C
196 09-08-2016 16:15:00 21.3 C 44 % 8.56 C
197 09-08-2016 16:20:00 21.6 C 40 % 7.43 C
198 09-08-2016 16:25:00 21.8 C 41 % 7.97 C
199 09-08-2016 16:30:00 21.9 C 40 % 7.7 C
200 09-08-2016 16:35:00 22.2 C 42 % 8.69 C
Sensor: Nr:Datum:Temp:Feuchte:Taupunkt:
Aussen-T/F 201 09-08-2016 16:40:00 22.1 C 46 % 9.95 C
202 09-08-2016 16:45:00 21.8 C 46 % 9.67 C
203 09-08-2016 16:50:00 21.3 C 49 % 10.16 C
204 09-08-2016 16:55:00 21.2 C 49 % 10.07 C
205 09-08-2016 17:00:00 20.8 C 50 % 10 C
206 09-08-2016 17:05:00 20.5 C 53 % 10.6 C
207 09-08-2016 17:10:00 20.6 C 51 % 10.12 C
208 09-08-2016 17:15:00 20.9 C 51 % 10.39 C
209 09-08-2016 17:20:00 21.3 C 52 % 11.05 C
210 09-08-2016 17:25:00 21.6 C 49 % 10.44 C
211 09-08-2016 17:30:00 21.6 C 49 % 10.44 C
212 09-08-2016 17:35:00 21.2 C 51 % 10.67 C
213 09-08-2016 17:40:00 20.3 C 55 % 10.97 C
214 09-08-2016 17:45:00 19.5 C 58 % 11.02 C
215 09-08-2016 17:50:00 18.8 C 60 % 10.88 C
216 09-08-2016 17:55:00 18.4 C 61 % 10.75 C
217 09-08-2016 18:00:00 18.1 C 62 % 10.71 C
218 09-08-2016 18:05:00 18 C 63 % 10.86 C
219 09-08-2016 18:10:00 17.9 C 63 % 10.76 C
220 09-08-2016 18:15:00 17.8 C 64 % 10.9 C
221 09-08-2016 18:20:00 17.8 C 64 % 10.9 C
222 09-08-2016 18:25:00 17.7 C 64 % 10.81 C
223 09-08-2016 18:30:00 17.7 C 64 % 10.81 C
224 09-08-2016 18:35:00 17.7 C 63 % 10.57 C
225 09-08-2016 18:40:00 17.6 C 62 % 10.24 C
Sensor: Nr:Datum:Temp:Feuchte:Taupunkt:
Aussen-T/F 226 09-08-2016 18:45:00 17.6 C 62 % 10.24 C
227 09-08-2016 18:50:00 17.6 C 64 % 10.72 C
228 09-08-2016 18:55:00 17.5 C 63 % 10.38 C
229 09-08-2016 19:00:00 17.5 C 62 % 10.15 C
230 09-08-2016 19:05:00 17.4 C 63 % 10.29 C
231 09-08-2016 19:10:00 17.4 C 62 % 10.05 C
232 09-08-2016 19:15:00 17.3 C 61 % 9.71 C
233 09-08-2016 19:20:00 17.2 C 61 % 9.62 C
234 09-08-2016 19:25:00 17.2 C 61 % 9.62 C
235 09-08-2016 19:30:00 17.1 C 61 % 9.53 C
236 09-08-2016 19:35:00 17.1 C 61 % 9.53 C
237 09-08-2016 19:40:00 17 C 62 % 9.67 C
238 09-08-2016 19:45:00 16.9 C 63 % 9.82 C
239 09-08-2016 19:50:00 16.9 C 62 % 9.58 C
240 09-08-2016 19:55:00 16.8 C 63 % 9.72 C
241 09-08-2016 20:00:00 16.8 C 63 % 9.72 C
242 09-08-2016 20:05:00 16.7 C 63 % 9.63 C
243 09-08-2016 20:10:00 16.6 C 63 % 9.53 C
244 09-08-2016 20:15:00 16.6 C 63 % 9.53 C
245 09-08-2016 20:20:00 16.6 C 64 % 9.77 C
246 09-08-2016 20:25:00 16.6 C 64 % 9.77 C
247 09-08-2016 20:30:00 16.6 C 66 % 10.23 C
248 09-08-2016 20:35:00 16.5 C 67 % 10.36 C
249 09-08-2016 20:40:00 16.4 C 66 % 10.04 C
250 09-08-2016 20:45:00 16.4 C 66 % 10.04 C
Sensor: Nr:Datum:Temp:Feuchte:Taupunkt:
Aussen-T/F 251 09-08-2016 20:50:00 16.3 C 67 % 10.17 C
252 09-08-2016 20:55:00 16.2 C 68 % 10.29 C
253 09-08-2016 21:00:00 16 C 72 % 10.96 C
254 09-08-2016 21:05:00 15.7 C 73 % 10.88 C
255 09-08-2016 21:10:00 15.3 C 74 % 10.7 C
256 09-08-2016 21:15:00 14.9 C 76 % 10.71 C
257 09-08-2016 21:20:00 14.6 C 77 % 10.62 C
258 09-08-2016 21:25:00 14.3 C 78 % 10.52 C
259 09-08-2016 21:30:00 14.2 C 79 % 10.61 C
260 09-08-2016 21:35:00 14 C 79 % 10.42 C
261 09-08-2016 21:40:00 14 C 80 % 10.61 C
262 09-08-2016 21:45:00 14.1 C 80 % 10.71 C
263 09-08-2016 21:50:00 14.1 C 77 % 10.13 C
264 09-08-2016 21:55:00 14.1 C 78 % 10.33 C
265 09-08-2016 22:00:00 14.1 C 78 % 10.33 C
266 09-08-2016 22:05:00 14.1 C 79 % 10.52 C
267 09-08-2016 22:10:00 14.1 C 77 % 10.13 C
268 09-08-2016 22:15:00 14.1 C 77 % 10.13 C
269 09-08-2016 22:20:00 14.3 C 76 % 10.13 C
270 09-08-2016 22:25:00 14.5 C 77 % 10.52 C
271 09-08-2016 22:30:00 14.6 C 78 % 10.81 C
272 09-08-2016 22:35:00 14.6 C 77 % 10.62 C
273 09-08-2016 22:40:00 14.5 C 78 % 10.71 C
274 09-08-2016 22:45:00 14.3 C 78 % 10.52 C
275 09-08-2016 22:50:00 14.1 C 79 % 10.52 C
Sensor: Nr:Datum:Temp:Feuchte:Taupunkt:
Aussen-T/F 276 09-08-2016 22:55:00 13.9 C 79 % 10.32 C
277 09-08-2016 23:00:00 13.7 C 80 % 10.32 C
278 09-08-2016 23:05:00 13.6 C 81 % 10.4 C
279 09-08-2016 23:10:00 13.5 C 82 % 10.49 C
280 09-08-2016 23:15:00 13.5 C 81 % 10.31 C
281 09-08-2016 23:20:00 13.4 C 82 % 10.39 C
282 09-08-2016 23:25:00 13.3 C 82 % 10.3 C
283 09-08-2016 23:30:00 13.2 C 82 % 10.2 C
284 09-08-2016 23:35:00 13.1 C 82 % 10.1 C
285 09-08-2016 23:40:00 13 C 83 % 10.18 C
286 09-08-2016 23:45:00 12.9 C 83 % 10.09 C
287 09-08-2016 23:50:00 12.8 C 83 % 9.99 C
288 09-08-2016 23:55:00 12.7 C 84 % 10.07 C

Legende:
   Min
   Max


Maximal/Minimal-Werte vom 09.08.2016 - 09.08.2016

Sensor Min Max Avg
Temp
(Aussen-T/F)
12.7 °C
09-08-2016  23:55:00
22.2 °C
09-08-2016  16:35:00
16.43 °C
Feuchte
(Aussen-T/F)
40 %
09-08-2016  16:20:00
91 %
09-08-2016  07:55:00
72.24 %
Taupunkt
(Aussen-T/F)
7.43 C
09-08-2016  16:20:00
13.33 C
09-08-2016  00:00:00
11.07 C

Die Daten stammen von einer Davis Vantage Pro 2 Wetter-Station und werden unter Linux mit der Software wview2wettercgi und aufbereitet. Alle Angaben erfolgen ohne Gewähr für ihre Vollständigkeit oder Richtigkeit.
Kontakt: Rainer Krienke krienke@uni-koblenz.de . Meine Webseiten an der Uni Koblenz oder privat.
Version: $Revision: 0.78 $